createdAt,value
2018-07-13T00:00:03.506Z,95912.00
2018-07-13T00:00:35.520Z,95914.00
2018-07-13T00:01:07.519Z,95912.00
2018-07-13T00:01:39.565Z,95908.00
2018-07-13T00:02:11.575Z,95915.00
2018-07-13T00:02:43.599Z,95914.00
2018-07-13T00:03:15.654Z,95915.00
2018-07-13T00:03:47.676Z,95914.00
2018-07-13T00:04:19.699Z,95914.00
2018-07-13T00:04:51.706Z,95910.00
2018-07-13T00:05:23.751Z,95911.00
2018-07-13T00:05:55.768Z,95913.00
2018-07-13T00:06:27.810Z,95910.00
2018-07-13T00:06:59.813Z,95914.00
2018-07-13T00:07:31.848Z,95914.00
2018-07-13T00:08:03.917Z,95910.00
2018-07-13T00:08:35.954Z,95910.00
2018-07-13T00:09:07.959Z,95911.00
2018-07-13T00:09:39.976Z,95912.00
2018-07-13T00:10:11.986Z,95912.00
2018-07-13T00:10:44.035Z,95908.00
2018-07-13T00:11:16.010Z,95911.00
2018-07-13T00:11:48.037Z,95916.00
2018-07-13T00:12:20.047Z,95911.00
2018-07-13T00:12:52.094Z,95913.00
2018-07-13T00:13:24.095Z,95913.00
2018-07-13T00:13:56.114Z,95914.00
2018-07-13T00:14:28.118Z,95917.00
2018-07-13T00:15:00.156Z,95908.00
2018-07-13T00:15:32.166Z,95910.00
2018-07-13T00:16:04.167Z,95908.00
2018-07-13T00:16:36.184Z,95909.00
2018-07-13T00:17:08.218Z,95904.00
2018-07-13T00:17:40.197Z,95906.00
2018-07-13T00:18:12.222Z,95911.00
2018-07-13T00:18:44.230Z,95909.00
2018-07-13T00:19:16.258Z,95904.00
2018-07-13T00:19:48.292Z,95911.00
2018-07-13T00:20:20.423Z,95901.00
2018-07-13T00:20:52.415Z,95906.00
2018-07-13T00:21:24.443Z,95902.00
2018-07-13T00:21:56.449Z,95902.00
2018-07-13T00:22:28.479Z,95901.00
2018-07-13T00:23:00.529Z,95900.00
2018-07-13T00:23:32.555Z,95908.00
2018-07-13T00:24:04.563Z,95908.00
2018-07-13T00:24:36.606Z,95909.00
2018-07-13T00:25:08.628Z,95905.00
2018-07-13T00:25:40.642Z,95906.00
2018-07-13T00:26:12.656Z,95905.00
2018-07-13T00:26:44.667Z,95906.00
2018-07-13T00:27:16.683Z,95909.00
2018-07-13T00:27:48.694Z,95907.00
2018-07-13T00:28:20.707Z,95907.00
2018-07-13T00:28:52.738Z,95909.00
2018-07-13T00:29:24.787Z,95910.00
2018-07-13T00:29:56.799Z,95907.00
2018-07-13T00:30:28.820Z,95909.00
2018-07-13T00:31:00.837Z,95908.00
2018-07-13T00:31:32.850Z,95906.00
2018-07-13T00:32:04.881Z,95906.00
2018-07-13T00:32:36.891Z,95903.00
2018-07-13T00:33:08.904Z,95908.00
2018-07-13T00:33:40.931Z,95905.00
2018-07-13T00:34:12.951Z,95904.00
2018-07-13T00:34:44.996Z,95905.00
2018-07-13T00:35:16.989Z,95907.00
2018-07-13T00:35:49.024Z,95907.00
2018-07-13T00:36:21.030Z,95908.00
2018-07-13T00:36:53.046Z,95907.00
2018-07-13T00:37:25.068Z,95909.00
2018-07-13T00:37:57.098Z,95911.00
2018-07-13T00:38:29.097Z,95909.00
2018-07-13T00:39:01.123Z,95908.00
2018-07-13T00:39:33.137Z,95908.00
2018-07-13T00:40:05.180Z,95907.00
2018-07-13T00:40:37.197Z,95911.00
2018-07-13T00:41:09.220Z,95906.00
2018-07-13T00:41:41.259Z,95908.00
2018-07-13T00:42:13.271Z,95911.00
2018-07-13T00:42:45.309Z,95912.00
2018-07-13T00:43:17.332Z,95909.00
2018-07-13T00:43:49.384Z,95911.00
2018-07-13T00:44:21.430Z,95913.00
2018-07-13T00:44:53.445Z,95911.00
2018-07-13T00:45:25.471Z,95913.00
2018-07-13T00:45:57.483Z,95908.00
2018-07-13T00:46:29.607Z,95908.00
2018-07-13T00:47:01.612Z,95916.00
2018-07-13T00:47:33.695Z,95910.00
2018-07-13T00:48:05.723Z,95914.00
2018-07-13T00:48:37.761Z,95911.00
2018-07-13T00:49:09.778Z,95909.00
2018-07-13T00:49:41.790Z,95906.00
2018-07-13T00:50:13.832Z,95906.00
2018-07-13T00:50:45.814Z,95917.00
2018-07-13T00:51:17.814Z,95915.00
2018-07-13T00:51:49.837Z,95917.00
2018-07-13T00:52:21.838Z,95915.00
2018-07-13T00:52:53.871Z,95913.00
2018-07-13T00:53:25.930Z,95914.00
2018-07-13T00:53:57.959Z,95917.00
2018-07-13T00:54:29.967Z,95919.00
2018-07-13T00:55:01.981Z,95920.00
2018-07-13T00:55:34.047Z,95917.00
2018-07-13T00:56:06.054Z,95918.00
2018-07-13T00:56:38.136Z,95917.00
2018-07-13T00:57:10.137Z,95917.00
2018-07-13T00:57:42.338Z,95919.00
2018-07-13T00:58:14.385Z,95916.00
2018-07-13T00:58:46.378Z,95918.00
2018-07-13T00:59:18.395Z,95916.00
2018-07-13T00:59:50.414Z,95916.00
2018-07-13T01:00:22.422Z,95918.00
2018-07-13T01:00:54.443Z,95919.00
2018-07-13T01:01:26.458Z,95918.00
2018-07-13T01:01:58.475Z,95920.00
2018-07-13T01:02:30.506Z,95919.00
2018-07-13T01:03:02.537Z,95917.00
2018-07-13T01:03:34.575Z,95919.00
2018-07-13T01:04:06.593Z,95916.00
2018-07-13T01:04:38.606Z,95917.00
2018-07-13T01:05:10.633Z,95915.00
2018-07-13T01:05:42.727Z,95916.00
2018-07-13T01:06:14.787Z,95923.00
2018-07-13T01:06:46.804Z,95919.00
2018-07-13T01:07:18.836Z,95922.00
2018-07-13T01:07:50.866Z,95918.00
2018-07-13T01:08:22.867Z,95921.00
2018-07-13T01:08:54.900Z,95920.00
2018-07-13T01:09:27.306Z,95918.00
2018-07-13T01:09:59.211Z,95916.00
2018-07-13T01:10:31.217Z,95917.00
2018-07-13T01:11:03.227Z,95924.00
2018-07-13T01:11:35.248Z,95919.00
2018-07-13T01:12:07.277Z,95917.00
2018-07-13T01:12:39.290Z,95922.00
2018-07-13T01:13:11.324Z,95918.00
2018-07-13T01:13:43.411Z,95917.00
2018-07-13T01:14:15.440Z,95915.00
2018-07-13T01:14:47.450Z,95922.00
2018-07-13T01:15:19.480Z,95919.00
2018-07-13T01:15:51.508Z,95915.00
2018-07-13T01:16:23.538Z,95913.00
2018-07-13T01:16:55.559Z,95916.00
2018-07-13T01:17:27.584Z,95913.00
2018-07-13T01:17:59.608Z,95915.00
2018-07-13T01:18:31.636Z,95914.00
2018-07-13T01:19:03.656Z,95914.00
2018-07-13T01:19:35.667Z,95915.00
2018-07-13T01:20:07.689Z,95912.00
2018-07-13T01:20:39.793Z,95910.00
2018-07-13T01:21:11.783Z,95911.00
2018-07-13T01:21:43.793Z,95915.00
2018-07-13T01:22:15.803Z,95917.00
2018-07-13T01:22:47.814Z,95913.00
2018-07-13T01:23:20.225Z,95915.00
2018-07-13T01:23:52.103Z,95914.00
2018-07-13T01:24:24.118Z,95913.00
2018-07-13T01:24:56.140Z,95917.00
2018-07-13T01:25:28.160Z,95914.00
2018-07-13T01:26:00.173Z,95916.00
2018-07-13T01:26:32.196Z,95919.00
2018-07-13T01:27:04.221Z,95915.00
2018-07-13T01:27:36.235Z,95912.00
2018-07-13T01:28:08.258Z,95917.00
2018-07-13T01:28:40.281Z,95911.00
2018-07-13T01:29:12.301Z,95910.00
2018-07-13T01:29:44.326Z,95913.00
2018-07-13T01:30:16.354Z,95916.00
2018-07-13T01:30:48.432Z,95915.00
2018-07-13T01:31:20.447Z,95910.00
2018-07-13T01:31:52.461Z,95911.00
2018-07-13T01:32:24.480Z,95912.00
2018-07-13T01:32:56.500Z,95914.00
2018-07-13T01:33:28.539Z,95912.00
2018-07-13T01:34:00.554Z,95911.00
2018-07-13T01:34:32.567Z,95912.00
2018-07-13T01:35:04.600Z,95910.00
2018-07-13T01:35:36.623Z,95912.00
2018-07-13T01:36:08.641Z,95911.00
2018-07-13T01:36:40.655Z,95914.00
2018-07-13T01:37:12.667Z,95912.00
2018-07-13T01:37:44.674Z,95906.00
2018-07-13T01:38:16.682Z,95911.00
2018-07-13T01:38:48.701Z,95910.00
2018-07-13T01:39:20.723Z,95906.00
2018-07-13T01:39:52.749Z,95907.00
2018-07-13T01:40:24.803Z,95904.00
2018-07-13T01:40:56.816Z,95907.00
2018-07-13T01:41:28.831Z,95908.00
2018-07-13T01:42:00.864Z,95909.00
2018-07-13T01:42:32.889Z,95908.00
2018-07-13T01:43:04.920Z,95903.00
2018-07-13T01:43:36.988Z,95906.00
2018-07-13T01:44:08.975Z,95906.00
2018-07-13T01:44:40.986Z,95909.00
2018-07-13T01:45:12.994Z,95911.00
2018-07-13T01:45:45.014Z,95909.00
2018-07-13T01:46:17.038Z,95910.00
2018-07-13T01:46:49.059Z,95908.00
2018-07-13T01:47:21.090Z,95907.00
2018-07-13T01:47:53.108Z,95907.00
2018-07-13T01:48:25.127Z,95905.00
2018-07-13T01:48:57.134Z,95910.00
2018-07-13T01:49:29.159Z,95907.00
2018-07-13T01:50:01.171Z,95904.00
2018-07-13T01:50:33.176Z,95905.00
2018-07-13T01:51:05.197Z,95904.00
2018-07-13T01:51:37.206Z,95904.00
2018-07-13T01:52:09.242Z,95908.00
2018-07-13T01:52:41.254Z,95904.00
2018-07-13T01:53:13.303Z,95907.00
2018-07-13T01:53:45.299Z,95905.00
2018-07-13T01:54:17.324Z,95904.00
2018-07-13T01:54:49.347Z,95900.00
2018-07-13T01:55:21.358Z,95902.00
2018-07-13T01:55:53.378Z,95901.00
2018-07-13T01:56:25.407Z,95903.00
2018-07-13T01:56:57.416Z,95899.00
2018-07-13T01:57:29.441Z,95904.00
2018-07-13T01:58:01.460Z,95901.00
2018-07-13T01:58:33.462Z,95900.00
2018-07-13T01:59:05.561Z,95902.00
2018-07-13T01:59:37.564Z,95903.00
2018-07-13T02:00:09.583Z,95899.00
2018-07-13T02:00:41.593Z,95903.00
2018-07-13T02:01:13.608Z,95901.00
2018-07-13T02:01:45.638Z,95902.00
2018-07-13T02:02:17.640Z,95906.00
2018-07-13T02:02:49.666Z,95900.00
2018-07-13T02:03:21.685Z,95900.00
2018-07-13T02:03:53.699Z,95901.00
2018-07-13T02:04:25.695Z,95899.00
2018-07-13T02:04:57.724Z,95900.00
2018-07-13T02:05:29.750Z,95902.00
2018-07-13T02:06:01.787Z,95898.00
2018-07-13T02:06:33.770Z,95901.00
2018-07-13T02:07:05.790Z,95902.00
2018-07-13T02:07:37.797Z,95899.00
2018-07-13T02:08:09.832Z,95900.00
2018-07-13T02:08:41.860Z,95902.00
2018-07-13T02:09:13.869Z,95905.00
2018-07-13T02:09:45.904Z,95902.00
2018-07-13T02:10:17.911Z,95901.00
2018-07-13T02:10:49.942Z,95902.00
2018-07-13T02:11:21.947Z,95901.00
2018-07-13T02:11:53.975Z,95905.00
2018-07-13T02:12:25.988Z,95905.00
2018-07-13T02:12:58.004Z,95901.00
2018-07-13T02:13:30.019Z,95901.00
2018-07-13T02:14:02.039Z,95905.00
2018-07-13T02:14:34.103Z,95900.00
2018-07-13T02:15:06.124Z,95903.00
2018-07-13T02:15:38.136Z,95896.00
2018-07-13T02:16:10.150Z,95895.00
2018-07-13T02:16:42.182Z,95897.00
2018-07-13T02:17:14.181Z,95895.00
2018-07-13T02:17:46.206Z,95898.00
2018-07-13T02:18:18.215Z,95895.00
2018-07-13T02:18:50.282Z,95897.00
2018-07-13T02:19:22.316Z,95896.00
2018-07-13T02:19:54.319Z,95896.00
2018-07-13T02:20:26.338Z,95898.00
2018-07-13T02:20:58.357Z,95892.00
2018-07-13T02:21:30.356Z,95897.00
2018-07-13T02:22:02.373Z,95895.00
2018-07-13T02:22:34.382Z,95897.00
2018-07-13T02:23:06.387Z,95895.00
2018-07-13T02:23:38.419Z,95896.00
2018-07-13T02:24:10.432Z,95897.00
2018-07-13T02:24:42.454Z,95897.00
2018-07-13T02:25:14.451Z,95904.00
2018-07-13T02:25:46.462Z,95899.00
2018-07-13T02:26:18.489Z,95898.00
2018-07-13T02:26:50.494Z,95898.00
2018-07-13T02:27:22.526Z,95899.00
2018-07-13T02:27:54.549Z,95901.00
2018-07-13T02:28:26.560Z,95904.00
2018-07-13T02:28:58.587Z,95904.00
2018-07-13T02:29:30.602Z,95901.00
2018-07-13T02:30:02.611Z,95902.00
2018-07-13T02:30:34.638Z,95901.00
2018-07-13T02:31:06.651Z,95901.00
2018-07-13T02:31:38.663Z,95905.00
2018-07-13T02:32:10.690Z,95902.00
2018-07-13T02:32:42.692Z,95903.00
2018-07-13T02:33:14.706Z,95903.00
2018-07-13T02:33:46.793Z,95900.00
2018-07-13T02:34:18.736Z,95902.00
2018-07-13T02:34:50.752Z,95901.00
2018-07-13T02:35:22.781Z,95899.00
2018-07-13T02:35:54.856Z,95901.00
2018-07-13T02:36:26.882Z,95901.00
2018-07-13T02:36:58.899Z,95903.00
2018-07-13T02:37:30.894Z,95903.00
2018-07-13T02:38:02.918Z,95905.00
2018-07-13T02:38:34.944Z,95907.00
2018-07-13T02:39:07.058Z,95905.00
2018-07-13T02:39:39.007Z,95906.00
2018-07-13T02:40:11.022Z,95902.00
2018-07-13T02:40:43.015Z,95902.00
2018-07-13T02:41:15.028Z,95902.00
2018-07-13T02:41:47.042Z,95905.00
2018-07-13T02:42:19.063Z,95906.00
2018-07-13T02:42:51.082Z,95911.00
2018-07-13T02:43:23.147Z,95907.00
2018-07-13T02:43:55.156Z,95913.00
2018-07-13T02:44:27.558Z,95909.00
2018-07-13T02:44:59.499Z,95910.00
2018-07-13T02:45:31.516Z,95916.00
2018-07-13T02:46:03.531Z,95918.00
2018-07-13T02:46:35.556Z,95912.00
2018-07-13T02:47:07.574Z,95912.00
2018-07-13T02:47:39.604Z,95917.00
2018-07-13T02:48:11.621Z,95919.00
2018-07-13T02:48:43.649Z,95917.00
2018-07-13T02:49:15.679Z,95914.00
2018-07-13T02:49:47.804Z,95920.00
2018-07-13T02:50:19.807Z,95922.00
2018-07-13T02:50:51.814Z,95922.00
2018-07-13T02:51:23.827Z,95924.00
2018-07-13T02:51:55.909Z,95922.00
2018-07-13T02:52:27.907Z,95928.00
2018-07-13T02:52:59.922Z,95922.00
2018-07-13T02:53:31.944Z,95928.00
2018-07-13T02:54:03.942Z,95925.00
2018-07-13T02:54:35.957Z,95923.00
2018-07-13T02:55:07.986Z,95926.00
2018-07-13T02:55:39.997Z,95928.00
2018-07-13T02:56:12.038Z,95929.00
2018-07-13T02:56:44.075Z,95928.00
2018-07-13T02:57:16.072Z,95922.00
2018-07-13T02:57:48.091Z,95926.00
2018-07-13T02:58:20.113Z,95927.00
2018-07-13T02:58:52.137Z,95924.00
2018-07-13T02:59:24.150Z,95932.00
2018-07-13T02:59:56.196Z,95929.00
2018-07-13T03:00:28.196Z,95929.00
2018-07-13T03:01:00.199Z,95928.00
2018-07-13T03:01:32.233Z,95926.00
2018-07-13T03:02:04.276Z,95930.00
2018-07-13T03:02:36.295Z,95929.00
2018-07-13T03:03:08.306Z,95928.00
2018-07-13T03:03:40.344Z,95931.00
2018-07-13T03:04:12.362Z,95927.00
2018-07-13T03:04:44.379Z,95933.00
2018-07-13T03:05:16.401Z,95931.00
2018-07-13T03:05:48.424Z,95932.00
2018-07-13T03:06:20.451Z,95932.00
2018-07-13T03:06:52.470Z,95930.00
2018-07-13T03:07:24.539Z,95929.00
2018-07-13T03:07:56.583Z,95929.00
2018-07-13T03:08:28.606Z,95935.00
2018-07-13T03:09:00.630Z,95936.00
2018-07-13T03:09:32.633Z,95932.00
2018-07-13T03:10:04.646Z,95934.00
2018-07-13T03:10:36.676Z,95937.00
2018-07-13T03:11:08.726Z,95933.00
2018-07-13T03:11:40.793Z,95935.00
2018-07-13T03:12:12.781Z,95932.00
2018-07-13T03:12:44.806Z,95934.00
2018-07-13T03:13:16.838Z,95937.00
2018-07-13T03:13:48.849Z,95936.00
2018-07-13T03:14:20.879Z,95938.00
2018-07-13T03:14:52.895Z,95935.00
2018-07-13T03:15:24.953Z,95939.00
2018-07-13T03:15:56.967Z,95937.00
2018-07-13T03:16:28.988Z,95939.00
2018-07-13T03:17:01.011Z,95939.00
2018-07-13T03:17:33.032Z,95938.00
2018-07-13T03:18:05.051Z,95939.00
2018-07-13T03:18:37.089Z,95939.00
2018-07-13T03:19:09.112Z,95941.00
2018-07-13T03:19:41.149Z,95942.00
2018-07-13T03:20:13.158Z,95941.00
2018-07-13T03:20:45.204Z,95942.00
2018-07-13T03:21:17.223Z,95946.00
2018-07-13T03:21:49.310Z,95948.00
2018-07-13T03:22:21.320Z,95946.00
2018-07-13T03:22:53.330Z,95950.00
2018-07-13T03:23:25.374Z,95946.00
2018-07-13T03:23:57.403Z,95947.00
2018-07-13T03:24:29.420Z,95950.00
2018-07-13T03:25:01.426Z,95946.00
2018-07-13T03:25:33.436Z,95950.00
2018-07-13T03:26:05.456Z,95950.00
2018-07-13T03:26:37.913Z,95952.00
2018-07-13T03:27:09.865Z,95951.00
2018-07-13T03:27:41.867Z,95952.00
2018-07-13T03:28:13.887Z,95948.00
2018-07-13T03:28:45.890Z,95950.00
2018-07-13T03:29:17.900Z,95948.00
2018-07-13T03:29:49.909Z,95949.00
2018-07-13T03:30:21.934Z,95948.00
2018-07-13T03:30:53.939Z,95950.00
2018-07-13T03:31:25.950Z,95949.00
2018-07-13T03:31:57.972Z,95951.00
2018-07-13T03:32:29.974Z,95953.00
2018-07-13T03:33:01.999Z,95955.00
2018-07-13T03:33:34.017Z,95953.00
2018-07-13T03:34:06.026Z,95951.00
2018-07-13T03:34:38.035Z,95953.00
2018-07-13T03:35:10.066Z,95954.00
2018-07-13T03:35:42.074Z,95952.00
2018-07-13T03:36:14.116Z,95954.00
2018-07-13T03:36:46.123Z,95953.00
2018-07-13T03:37:18.128Z,95953.00
2018-07-13T03:37:50.142Z,95953.00
2018-07-13T03:38:22.193Z,95957.00
2018-07-13T03:38:54.297Z,95956.00
2018-07-13T03:39:26.397Z,95953.00
2018-07-13T03:39:58.439Z,95955.00
2018-07-13T03:40:30.453Z,95953.00
2018-07-13T03:41:02.458Z,95954.00
2018-07-13T03:41:34.477Z,95953.00
2018-07-13T03:42:06.486Z,95958.00
2018-07-13T03:42:38.506Z,95956.00
2018-07-13T03:43:10.524Z,95956.00
2018-07-13T03:43:42.526Z,95955.00
2018-07-13T03:44:14.567Z,95960.00
2018-07-13T03:44:46.574Z,95959.00
2018-07-13T03:45:18.599Z,95963.00
2018-07-13T03:45:50.602Z,95956.00
2018-07-13T03:46:22.614Z,95958.00
2018-07-13T03:46:54.633Z,95958.00
2018-07-13T03:47:26.645Z,95960.00
2018-07-13T03:47:58.663Z,95958.00
2018-07-13T03:48:30.684Z,95965.00
2018-07-13T03:49:02.714Z,95962.00
2018-07-13T03:49:34.840Z,95963.00
2018-07-13T03:50:06.824Z,95965.00
2018-07-13T03:50:38.842Z,95962.00
2018-07-13T03:51:10.871Z,95965.00
2018-07-13T03:51:42.882Z,95964.00
2018-07-13T03:52:14.900Z,95967.00
2018-07-13T03:52:46.946Z,95967.00
2018-07-13T03:53:18.957Z,95969.00
2018-07-13T03:53:50.969Z,95968.00
2018-07-13T03:54:22.980Z,95969.00
2018-07-13T03:54:54.995Z,95971.00
2018-07-13T03:55:27.051Z,95970.00
2018-07-13T03:55:59.130Z,95970.00
2018-07-13T03:56:31.147Z,95971.00
2018-07-13T03:57:03.152Z,95974.00
2018-07-13T03:57:35.168Z,95974.00
2018-07-13T03:58:07.169Z,95978.00
2018-07-13T03:58:39.194Z,95981.00
2018-07-13T03:59:11.215Z,95979.00
2018-07-13T03:59:43.258Z,95983.00
2018-07-13T04:00:15.257Z,95981.00
2018-07-13T04:00:47.288Z,95978.00
2018-07-13T04:01:19.387Z,95978.00
2018-07-13T04:01:51.393Z,95985.00
2018-07-13T04:02:23.414Z,95984.00
2018-07-13T04:02:55.443Z,95983.00
2018-07-13T04:03:27.450Z,95984.00
2018-07-13T04:03:59.460Z,95980.00
2018-07-13T04:04:31.461Z,95975.00
2018-07-13T04:05:03.478Z,95981.00
2018-07-13T04:05:35.489Z,95983.00
2018-07-13T04:06:07.495Z,95986.00
2018-07-13T04:06:39.526Z,95993.00
2018-07-13T04:07:11.599Z,95992.00
2018-07-13T04:07:43.547Z,95991.00
2018-07-13T04:08:15.553Z,95994.00
2018-07-13T04:08:47.609Z,95993.00
2018-07-13T04:09:19.620Z,95990.00
2018-07-13T04:09:51.649Z,95990.00
2018-07-13T04:10:23.670Z,95990.00
2018-07-13T04:10:55.719Z,95989.00
2018-07-13T04:11:27.737Z,95993.00
2018-07-13T04:11:59.777Z,96001.00
2018-07-13T04:12:31.805Z,95992.00
2018-07-13T04:13:03.806Z,95994.00
2018-07-13T04:13:35.828Z,95999.00
2018-07-13T04:14:08.233Z,95995.00
2018-07-13T04:14:40.206Z,95996.00
2018-07-13T04:15:12.162Z,95995.00
2018-07-13T04:15:44.177Z,95992.00
2018-07-13T04:16:16.182Z,95991.00
2018-07-13T04:16:48.201Z,95991.00
2018-07-13T04:17:20.222Z,95994.00
2018-07-13T04:17:52.297Z,95997.00
2018-07-13T04:18:24.341Z,95991.00
2018-07-13T04:18:56.405Z,95985.00
2018-07-13T04:19:28.413Z,95982.00
2018-07-13T04:20:00.454Z,95988.00
2018-07-13T04:20:32.461Z,95986.00
2018-07-13T04:21:04.477Z,95987.00
2018-07-13T04:21:36.517Z,95989.00
2018-07-13T04:22:08.593Z,95989.00
2018-07-13T04:22:40.604Z,95981.00
2018-07-13T04:23:12.640Z,95984.00
2018-07-13T04:23:44.649Z,95982.00
2018-07-13T04:24:16.662Z,95987.00
2018-07-13T04:24:48.707Z,95985.00
2018-07-13T04:25:20.725Z,95989.00
2018-07-13T04:25:52.738Z,95984.00
2018-07-13T04:26:24.787Z,95990.00
2018-07-13T04:26:56.796Z,95984.00
2018-07-13T04:27:28.807Z,95991.00
2018-07-13T04:28:00.846Z,95985.00
2018-07-13T04:28:32.842Z,95993.00
2018-07-13T04:29:04.886Z,95984.00
2018-07-13T04:29:36.905Z,95986.00
2018-07-13T04:30:08.913Z,95986.00
2018-07-13T04:30:40.920Z,95988.00
2018-07-13T04:31:12.942Z,95983.00
2018-07-13T04:31:44.964Z,95979.00
2018-07-13T04:32:16.996Z,95984.00
2018-07-13T04:32:49.067Z,95989.00
2018-07-13T04:33:21.129Z,95985.00
2018-07-13T04:33:53.162Z,95987.00
2018-07-13T04:34:25.308Z,95993.00
2018-07-13T04:34:57.308Z,95989.00
2018-07-13T04:35:29.326Z,95987.00
2018-07-13T04:36:01.334Z,95995.00
2018-07-13T04:36:33.338Z,95999.00
2018-07-13T04:37:05.367Z,95996.00
2018-07-13T04:37:37.382Z,96000.00
2018-07-13T04:38:09.411Z,95997.00
2018-07-13T04:38:41.422Z,96000.00
2018-07-13T04:39:13.432Z,95992.00
2018-07-13T04:39:45.461Z,95988.00
2018-07-13T04:40:17.475Z,95988.00
2018-07-13T04:40:49.540Z,95993.00
2018-07-13T04:41:21.510Z,95990.00
2018-07-13T04:41:53.540Z,95989.00
2018-07-13T04:42:25.549Z,95987.00
2018-07-13T04:42:57.561Z,95991.00
2018-07-13T04:43:29.578Z,95984.00
2018-07-13T04:44:01.595Z,95982.00
2018-07-13T04:44:33.598Z,95988.00
2018-07-13T04:45:05.614Z,95987.00
2018-07-13T04:45:37.633Z,95980.00
2018-07-13T04:46:09.675Z,95977.00
2018-07-13T04:46:41.695Z,95986.00
2018-07-13T04:47:13.704Z,95986.00
2018-07-13T04:47:45.704Z,95981.00
2018-07-13T04:48:17.721Z,95980.00
2018-07-13T04:48:49.726Z,95985.00
2018-07-13T04:49:21.763Z,95983.00
2018-07-13T04:49:53.799Z,95981.00
2018-07-13T04:50:25.804Z,95977.00
2018-07-13T04:50:57.813Z,95981.00
2018-07-13T04:51:29.828Z,95983.00
2018-07-13T04:52:01.853Z,95981.00
2018-07-13T04:52:33.865Z,95986.00
2018-07-13T04:53:05.903Z,95980.00
2018-07-13T04:53:37.917Z,95984.00
2018-07-13T04:54:09.948Z,95985.00
2018-07-13T04:54:42.004Z,95985.00
2018-07-13T04:55:14.062Z,95986.00
2018-07-13T04:55:46.034Z,95986.00
2018-07-13T04:56:18.065Z,95988.00
2018-07-13T04:56:50.069Z,95984.00
2018-07-13T04:57:22.115Z,95989.00
2018-07-13T04:57:54.122Z,95985.00
2018-07-13T04:58:26.145Z,95984.00
2018-07-13T04:58:58.181Z,95986.00
2018-07-13T04:59:30.199Z,95985.00
2018-07-13T05:00:02.206Z,95986.00
2018-07-13T05:00:34.298Z,95986.00
2018-07-13T05:01:06.245Z,95984.00
2018-07-13T05:01:38.255Z,95982.00
2018-07-13T05:02:10.272Z,95987.00
2018-07-13T05:02:42.291Z,95986.00
2018-07-13T05:03:14.298Z,95986.00
2018-07-13T05:03:46.307Z,95982.00
2018-07-13T05:04:18.317Z,95986.00
2018-07-13T05:04:50.330Z,95989.00
2018-07-13T05:05:22.343Z,95983.00
2018-07-13T05:05:54.353Z,95986.00
2018-07-13T05:06:26.366Z,95982.00
2018-07-13T05:06:58.369Z,95988.00
2018-07-13T05:07:30.387Z,95983.00
2018-07-13T05:08:02.415Z,95982.00
2018-07-13T05:08:34.515Z,95984.00
2018-07-13T05:09:06.523Z,95981.00
2018-07-13T05:09:38.536Z,95980.00
2018-07-13T05:10:10.556Z,95982.00
2018-07-13T05:10:42.619Z,95979.00
2018-07-13T05:11:14.639Z,95980.00
2018-07-13T05:11:46.649Z,95978.00
2018-07-13T05:12:18.648Z,95978.00
2018-07-13T05:12:50.669Z,95978.00
2018-07-13T05:13:22.674Z,95979.00
2018-07-13T05:13:54.714Z,95981.00
2018-07-13T05:14:26.746Z,95979.00
2018-07-13T05:14:58.771Z,95976.00
2018-07-13T05:15:30.786Z,95978.00
2018-07-13T05:16:02.798Z,95979.00
2018-07-13T05:16:34.846Z,95979.00
2018-07-13T05:17:06.862Z,95980.00
2018-07-13T05:17:38.867Z,95983.00
2018-07-13T05:18:10.887Z,95982.00
2018-07-13T05:18:42.906Z,95978.00
2018-07-13T05:19:14.927Z,95982.00
2018-07-13T05:19:46.997Z,95983.00
2018-07-13T05:20:18.990Z,95979.00
2018-07-13T05:20:51.049Z,95979.00
2018-07-13T05:21:23.120Z,95982.00
2018-07-13T05:21:55.099Z,95982.00
2018-07-13T05:22:27.105Z,95984.00
2018-07-13T05:22:59.118Z,95980.00
2018-07-13T05:23:31.149Z,95987.00
2018-07-13T05:24:03.170Z,95986.00
2018-07-13T05:24:35.250Z,95985.00
2018-07-13T05:25:07.320Z,95983.00
2018-07-13T05:25:39.326Z,95987.00
2018-07-13T05:26:11.358Z,95983.00
2018-07-13T05:26:43.373Z,95984.00
2018-07-13T05:27:15.420Z,95988.00
2018-07-13T05:27:47.433Z,95983.00
2018-07-13T05:28:19.458Z,95989.00
2018-07-13T05:28:51.475Z,95985.00
2018-07-13T05:29:27.570Z,95984.00
2018-07-13T05:30:00.261Z,95988.00
2018-07-13T05:30:32.515Z,95989.00
2018-07-13T05:31:04.521Z,95989.00
2018-07-13T05:31:36.895Z,95994.00
2018-07-13T05:32:08.965Z,95991.00
2018-07-13T05:32:41.018Z,95987.00
2018-07-13T05:33:13.048Z,95992.00
2018-07-13T05:33:45.111Z,95997.00
2018-07-13T05:34:17.126Z,95991.00
2018-07-13T05:34:49.140Z,95988.00
2018-07-13T05:35:21.138Z,95991.00
2018-07-13T05:35:53.160Z,95993.00
2018-07-13T05:36:25.200Z,95990.00
2018-07-13T05:36:57.213Z,95986.00
2018-07-13T05:37:29.225Z,95987.00
2018-07-13T05:38:01.238Z,95984.00
2018-07-13T05:38:33.262Z,95983.00
2018-07-13T05:39:05.308Z,95983.00
2018-07-13T05:39:37.312Z,95985.00
2018-07-13T05:40:09.359Z,95985.00
2018-07-13T05:40:41.350Z,95985.00
2018-07-13T05:41:13.353Z,95987.00
2018-07-13T05:41:45.382Z,95992.00
2018-07-13T05:42:17.382Z,95986.00
2018-07-13T05:42:49.797Z,95991.00
2018-07-13T05:43:21.680Z,95986.00
2018-07-13T05:43:53.697Z,95990.00
2018-07-13T05:44:25.706Z,95988.00
2018-07-13T05:44:57.718Z,95988.00
2018-07-13T05:45:29.711Z,95987.00
2018-07-13T05:46:01.725Z,95991.00
2018-07-13T05:46:33.741Z,95988.00
2018-07-13T05:47:05.761Z,95989.00
2018-07-13T05:47:37.766Z,95990.00
2018-07-13T05:48:09.777Z,95985.00
2018-07-13T05:48:41.795Z,95984.00
2018-07-13T05:49:13.805Z,95989.00
2018-07-13T05:49:45.909Z,95987.00
2018-07-13T05:50:17.888Z,95993.00
2018-07-13T05:50:49.899Z,95991.00
2018-07-13T05:51:21.911Z,95987.00
2018-07-13T05:51:53.943Z,95995.00
2018-07-13T05:52:25.950Z,95989.00
2018-07-13T05:52:57.960Z,95990.00
2018-07-13T05:53:29.977Z,95994.00
2018-07-13T05:54:02.011Z,95993.00
2018-07-13T05:54:34.015Z,95996.00
2018-07-13T05:55:06.026Z,95993.00
2018-07-13T05:55:38.046Z,95997.00
2018-07-13T05:56:10.067Z,96002.00
2018-07-13T05:56:42.084Z,96003.00
2018-07-13T05:57:14.157Z,96002.00
2018-07-13T05:57:46.137Z,95999.00
2018-07-13T05:58:18.146Z,95999.00
2018-07-13T05:58:50.166Z,95996.00
2018-07-13T05:59:22.177Z,95995.00
2018-07-13T05:59:54.186Z,95995.00
2018-07-13T06:00:26.197Z,96001.00
2018-07-13T06:00:58.219Z,96002.00
2018-07-13T06:01:30.223Z,96000.00
2018-07-13T06:02:02.229Z,95999.00
2018-07-13T06:02:34.239Z,95996.00
2018-07-13T06:03:06.248Z,95999.00
2018-07-13T06:03:38.246Z,95995.00
2018-07-13T06:04:10.275Z,96002.00
2018-07-13T06:04:42.271Z,95997.00
2018-07-13T06:05:14.290Z,96004.00
2018-07-13T06:05:46.297Z,96003.00
2018-07-13T06:06:18.329Z,96003.00
2018-07-13T06:06:50.353Z,96004.00
2018-07-13T06:07:22.372Z,96000.00
2018-07-13T06:07:54.422Z,96000.00
2018-07-13T06:08:26.497Z,96003.00
2018-07-13T06:08:58.521Z,96000.00
2018-07-13T06:09:30.516Z,95999.00
2018-07-13T06:10:02.530Z,95999.00
2018-07-13T06:10:34.560Z,96000.00
2018-07-13T06:11:06.570Z,96004.00
2018-07-13T06:11:38.638Z,96004.00
2018-07-13T06:12:10.653Z,96004.00
2018-07-13T06:12:42.661Z,96004.00
2018-07-13T06:13:14.680Z,96002.00
2018-07-13T06:13:46.702Z,96006.00
2018-07-13T06:14:18.721Z,96001.00
2018-07-13T06:14:50.748Z,96003.00
2018-07-13T06:15:22.762Z,96003.00
2018-07-13T06:15:54.782Z,96002.00